Time;durP1;ratioP1;P1;durP2;ratioP2;P2;SDS_P1;SDS_P2;PMS_P1;PMS_P2;Temp;Humidity;BMP_temperature;BMP_pressure;BME280_temperature;BME280_humidity;BME280_pressure;Samples;Min_cycle;Max_cycle;Signal;HPM_P1;HPM_P2
2021/08/31 00:02:12;;;;;;;;;;;;;;;12.05;88.39;97573.11;1679598;85;20180;-71
2021/08/31 00:04:37;;;;;;;;;;;;;;;12.03;88.40;97575.84;1679775;84;21206;-76
2021/08/31 00:07:03;;;;;;;;;;;;;;;12.03;88.29;97572.58;1679536;84;20205;-71
2021/08/31 00:09:29;;;;;;;;;;;;;;;12.01;88.56;97577.51;1679759;85;20268;-72
2021/08/31 00:11:55;;;;;;;;;;;;;;;12.02;88.57;97572.33;1679650;84;20596;-72
2021/08/31 00:14:21;;;;;;;;;;;;;;;11.98;88.57;97571.88;1679713;84;20169;-72
2021/08/31 00:16:46;;;;;;;;;;;;;;;11.99;88.66;97566.15;1679758;84;21161;-76
2021/08/31 00:19:12;;;;;;;;;;;;;;;11.97;88.81;97565.65;1679702;85;20184;-76
2021/08/31 00:21:38;;;;;;;;;;;;;;;12.02;88.91;97572.88;1679780;84;20185;-76
2021/08/31 00:24:04;;;;;;;;;;;;;;;12.09;88.75;97566.51;1679813;84;20138;-72
2021/08/31 00:26:30;;;;;;;;;;;;;;;12.08;88.89;97560.83;1679810;84;20150;-72
2021/08/31 00:28:56;;;;;;;;;;;;;;;12.07;88.90;97563.30;1679885;85;21078;-72
2021/08/31 00:31:21;;;;;;;;;;;;;;;12.06;88.84;97569.28;1679631;85;20208;-72
2021/08/31 00:33:47;;;;;;;;;;;;;;;12.07;88.94;97557.86;1679661;85;20283;-71
2021/08/31 00:36:13;;;;;;;;;;;;;;;12.07;88.93;97554.59;1679677;84;20661;-72
2021/08/31 00:38:38;;;;;;;;;;;;;;;12.09;88.78;97557.00;1679533;84;20217;-71
2021/08/31 00:41:04;;;;;;;;;;;;;;;12.10;88.69;97555.89;1679725;84;21869;-72
2021/08/31 00:43:44;;;;;;;;;;;;;;;12.07;88.91;97558.66;1679691;84;20177;-76
2021/08/31 00:46:14;;;;;;;;;;;;;;;12.10;88.96;97564.05;1679805;84;20179;-71
2021/08/31 00:48:41;;;;;;;;;;;;;;;12.13;88.72;97567.50;1679793;84;20159;-76
2021/08/31 00:51:08;;;;;;;;;;;;;;;12.11;88.89;97557.50;1679701;85;20422;-72
2021/08/31 00:53:35;;;;;;;;;;;;;;;12.12;88.97;97557.75;1679819;84;21715;-76
2021/08/31 00:56:02;;;;;;;;;;;;;;;12.16;88.79;97556.06;1679770;84;20178;-72
2021/08/31 00:58:30;;;;;;;;;;;;;;;12.15;88.83;97559.88;1679706;85;20146;-76
2021/08/31 01:00:56;;;;;;;;;;;;;;;12.18;88.98;97562.55;1679887;84;20126;-75
2021/08/31 01:03:22;;;;;;;;;;;;;;;12.18;88.76;97555.20;1679765;84;20137;-71
2021/08/31 01:05:48;;;;;;;;;;;;;;;12.19;88.75;97559.52;1679863;85;21143;-71
2021/08/31 01:08:14;;;;;;;;;;;;;;;12.19;88.79;97562.79;1679615;84;20476;-75
2021/08/31 01:10:40;;;;;;;;;;;;;;;12.21;88.88;97558.66;1679546;85;20204;-76
2021/08/31 01:13:06;;;;;;;;;;;;;;;12.27;88.74;97560.73;1679546;84;20617;-72
2021/08/31 01:15:32;;;;;;;;;;;;;;;12.31;88.74;97560.40;1679794;84;20142;-72
2021/08/31 01:18:13;;;;;;;;;;;;;;;12.36;88.67;97569.23;1679524;84;20891;-76
2021/08/31 01:20:39;;;;;;;;;;;;;;;12.41;88.69;97560.19;1679232;85;20138;-76
2021/08/31 01:23:05;;;;;;;;;;;;;;;12.48;88.47;97560.59;1679464;84;20188;-76
2021/08/31 01:25:31;;;;;;;;;;;;;;;12.55;88.56;97558.25;1679874;84;20156;-76
2021/08/31 01:27:56;;;;;;;;;;;;;;;12.60;88.31;97560.88;1679593;84;20193;-72
2021/08/31 01:30:22;;;;;;;;;;;;;;;12.63;88.22;97552.11;1679752;84;21088;-72
2021/08/31 01:32:48;;;;;;;;;;;;;;;12.65;88.08;97555.34;1679592;84;20185;-72
2021/08/31 01:35:13;;;;;;;;;;;;;;;12.67;87.79;97559.11;1679616;84;20165;-76
2021/08/31 01:37:39;;;;;;;;;;;;;;;12.56;87.94;97554.98;1679506;84;20145;-76
2021/08/31 01:40:06;;;;;;;;;;;;;;;12.53;87.86;97546.89;1679660;84;20193;-71
2021/08/31 01:42:31;;;;;;;;;;;;;;;12.45;88.03;97547.59;1679594;84;21189;-75
2021/08/31 01:44:57;;;;;;;;;;;;;;;12.43;88.14;97541.67;1679588;84;20165;-72
2021/08/31 01:47:23;;;;;;;;;;;;;;;12.45;88.41;97545.44;1679603;84;20297;-71
2021/08/31 01:49:49;;;;;;;;;;;;;;;12.50;88.53;97543.98;1679564;84;20212;-76
2021/08/31 01:52:14;;;;;;;;;;;;;;;12.47;88.41;97539.94;1679709;84;20149;-71
2021/08/31 01:54:40;;;;;;;;;;;;;;;12.50;88.68;97533.11;1679661;84;21236;-71
2021/08/31 01:57:06;;;;;;;;;;;;;;;12.50;88.66;97536.64;1679700;84;20172;-72
2021/08/31 01:59:32;;;;;;;;;;;;;;;12.51;88.80;97536.08;1679754;84;20216;-72
2021/08/31 02:01:58;;;;;;;;;;;;;;;12.53;88.67;97536.57;1679759;84;20147;-72
2021/08/31 02:04:24;;;;;;;;;;;;;;;12.53;88.73;97532.50;1679622;84;20307;-76
2021/08/31 02:06:50;;;;;;;;;;;;;;;12.56;88.77;97531.87;1679728;84;21118;-75
2021/08/31 02:09:15;;;;;;;;;;;;;;;12.57;89.26;97530.23;1679597;84;20200;-76
2021/08/31 02:11:41;;;;;;;;;;;;;;;12.57;88.87;97532.16;1679460;85;20165;-76
2021/08/31 02:14:07;;;;;;;;;;;;;;;12.58;88.69;97525.05;1679704;85;20149;-76
2021/08/31 02:16:33;;;;;;;;;;;;;;;12.55;88.64;97530.27;1679799;84;20149;-72
2021/08/31 02:18:59;;;;;;;;;;;;;;;12.54;89.00;97527.30;1679616;85;21122;-71
2021/08/31 02:21:24;;;;;;;;;;;;;;;12.57;88.85;97529.44;1679686;84;20736;-72
2021/08/31 02:23:50;;;;;;;;;;;;;;;12.58;88.90;97528.33;1679659;84;20712;-71
2021/08/31 02:26:16;;;;;;;;;;;;;;;12.56;88.81;97520.48;1679654;84;20240;-72
2021/08/31 02:28:42;;;;;;;;;;;;;;;12.60;89.11;97525.55;1679648;84;20654;-76
2021/08/31 02:31:07;;;;;;;;;;;;;;;12.65;88.95;97524.64;1679749;84;21234;-76
2021/08/31 02:33:33;;;;;;;;;;;;;;;12.68;89.16;97530.81;1679347;85;20268;-77
2021/08/31 02:35:59;;;;;;;;;;;;;;;12.70;89.36;97528.59;1679833;84;20236;-71
2021/08/31 02:38:24;;;;;;;;;;;;;;;12.74;89.05;97529.61;1679460;84;20180;-76
2021/08/31 02:40:50;;;;;;;;;;;;;;;12.76;89.24;97526.02;1679852;84;20686;-71
2021/08/31 02:43:16;;;;;;;;;;;;;;;12.79;89.34;97521.33;1679555;84;21258;-72
2021/08/31 02:45:41;;;;;;;;;;;;;;;12.82;89.32;97515.82;1679724;84;20176;-71
2021/08/31 02:48:08;;;;;;;;;;;;;;;12.83;89.24;97514.73;1679567;84;20192;-71
2021/08/31 02:50:33;;;;;;;;;;;;;;;12.84;89.37;97513.06;1669900;85;20190;-72
2021/08/31 02:52:59;;;;;;;;;;;;;;;12.84;89.26;97511.70;1679639;84;20149;-71
2021/08/31 02:55:25;;;;;;;;;;;;;;;12.84;89.34;97517.70;1679872;84;21067;-72
2021/08/31 02:57:51;;;;;;;;;;;;;;;12.82;89.31;97511.22;1679573;85;20220;-76
2021/08/31 03:00:18;;;;;;;;;;;;;;;12.80;89.39;97512.61;1679452;85;20216;-76
2021/08/31 03:02:45;;;;;;;;;;;;;;;12.77;89.62;97510.52;1679642;84;20470;-77
2021/08/31 03:05:11;;;;;;;;;;;;;;;12.74;89.44;97503.78;1679554;84;20139;-76
2021/08/31 03:07:37;;;;;;;;;;;;;;;12.71;89.60;97507.89;1679594;84;21107;-77
2021/08/31 03:10:03;;;;;;;;;;;;;;;12.70;89.70;97506.84;1679587;84;20465;-71
2021/08/31 03:12:29;;;;;;;;;;;;;;;12.66;89.83;97505.30;1679601;84;20245;-71
2021/08/31 03:14:55;;;;;;;;;;;;;;;12.64;90.17;97505.34;1679509;84;20221;-71
2021/08/31 03:17:20;;;;;;;;;;;;;;;12.63;89.95;97511.33;1679756;84;20168;-77
2021/08/31 03:19:46;;;;;;;;;;;;;;;12.61;90.30;97509.48;1679630;84;20943;-72
2021/08/31 03:22:12;;;;;;;;;;;;;;;12.60;90.35;97503.00;1679774;84;20685;-71
2021/08/31 03:24:37;;;;;;;;;;;;;;;12.59;90.40;97510.34;1679770;84;20264;-71
2021/08/31 03:27:05;;;;;;;;;;;;;;;12.59;90.14;97507.63;1679901;84;20188;-77
2021/08/31 03:29:31;;;;;;;;;;;;;;;12.61;90.21;97508.13;1679731;84;20130;-71
2021/08/31 03:31:57;;;;;;;;;;;;;;;12.59;90.26;97509.55;1679924;85;21151;-77
2021/08/31 03:34:22;;;;;;;;;;;;;;;12.58;90.59;97505.22;1679606;84;20165;-77
2021/08/31 03:36:50;;;;;;;;;;;;;;;12.57;90.89;97498.98;1679913;84;20757;-76
2021/08/31 03:39:16;;;;;;;;;;;;;;;12.57;90.87;97502.26;1679647;84;20167;-76
2021/08/31 03:41:41;;;;;;;;;;;;;;;12.56;90.78;97494.66;1679803;84;20204;-71
2021/08/31 03:44:07;;;;;;;;;;;;;;;12.56;90.86;97500.09;1679806;84;21084;-72
2021/08/31 03:46:33;;;;;;;;;;;;;;;12.56;90.84;97496.02;1679762;84;20224;-71
2021/08/31 03:48:58;;;;;;;;;;;;;;;12.56;91.02;97485.16;1679764;85;20665;-71
2021/08/31 03:51:24;;;;;;;;;;;;;;;12.54;91.10;97491.98;1679698;84;20259;-76
2021/08/31 03:53:50;;;;;;;;;;;;;;;12.54;91.33;97493.34;1679614;84;20169;-71
2021/08/31 03:56:16;;;;;;;;;;;;;;;12.54;90.85;97491.42;1679836;84;21170;-71
2021/08/31 03:58:41;;;;;;;;;;;;;;;12.52;91.21;97488.21;1679653;85;20176;-76
2021/08/31 04:01:07;;;;;;;;;;;;;;;12.56;90.98;97489.75;1679901;84;20164;-71
2021/08/31 04:03:33;;;;;;;;;;;;;;;12.55;91.04;97493.58;1679633;84;20468;-71
2021/08/31 04:05:58;;;;;;;;;;;;;;;12.54;91.48;97490.06;1679870;84;20248;-72
2021/08/31 04:08:24;;;;;;;;;;;;;;;12.55;91.37;97496.30;1679557;85;21105;-76
2021/08/31 04:10:50;;;;;;;;;;;;;;;12.57;91.46;97489.47;1679845;84;20689;-76
2021/08/31 04:13:18;;;;;;;;;;;;;;;12.59;91.46;97493.23;1679698;84;20196;-76
2021/08/31 04:15:44;;;;;;;;;;;;;;;12.62;91.36;97484.47;1679724;85;20643;-76
2021/08/31 04:18:10;;;;;;;;;;;;;;;12.63;91.63;97488.79;1679629;85;20098;-76
2021/08/31 04:20:36;;;;;;;;;;;;;;;12.62;91.54;97485.27;1679923;84;21094;-77
2021/08/31 04:23:02;;;;;;;;;;;;;;;12.66;91.38;97485.48;1679565;84;20188;-77
2021/08/31 04:25:28;;;;;;;;;;;;;;;12.68;91.35;97485.97;1670027;85;20130;-76
2021/08/31 04:27:53;;;;;;;;;;;;;;;12.68;91.38;97484.61;1679648;84;20172;-71
2021/08/31 04:30:19;;;;;;;;;;;;;;;12.70;91.37;97480.47;1679796;84;20208;-76
2021/08/31 04:32:46;;;;;;;;;;;;;;;12.72;91.35;97488.31;1679717;84;21155;-72
2021/08/31 04:35:11;;;;;;;;;;;;;;;12.74;91.29;97490.19;1679538;84;20142;-76
2021/08/31 04:37:37;;;;;;;;;;;;;;;12.77;91.41;97486.84;1679870;84;20283;-76
2021/08/31 04:40:03;;;;;;;;;;;;;;;12.79;91.23;97481.91;1683853;84;20458;-71
2021/08/31 04:42:29;;;;;;;;;;;;;;;12.83;91.28;97491.63;1683900;85;20165;-71
2021/08/31 04:44:54;;;;;;;;;;;;;;;12.88;91.37;97491.48;1683879;84;20590;-72
2021/08/31 04:47:20;;;;;;;;;;;;;;;12.91;91.23;97493.06;1683797;85;20176;-71
2021/08/31 04:49:47;;;;;;;;;;;;;;;12.96;91.07;97496.20;1683843;84;20196;-71
2021/08/31 04:52:13;;;;;;;;;;;;;;;13.00;91.12;97491.77;1683732;85;20426;-72
2021/08/31 04:54:39;;;;;;;;;;;;;;;12.96;91.05;97483.41;1674024;85;20114;-71
2021/08/31 04:57:05;;;;;;;;;;;;;;;13.03;90.90;97483.55;1683917;85;21136;-71
2021/08/31 04:59:31;;;;;;;;;;;;;;;13.07;90.85;97485.87;1683832;85;20677;-77
2021/08/31 05:01:56;;;;;;;;;;;;;;;13.09;90.57;97480.40;1684074;85;20156;-76
2021/08/31 05:04:28;;;;;;;;;;;;;;;13.09;90.57;97479.59;1684161;84;20168;-71
2021/08/31 05:06:50;;;;;;;;;;;;;;;13.09;90.49;97477.68;1683596;84;20146;-76
2021/08/31 05:09:15;;;;;;;;;;;;;;;13.07;90.29;97477.16;1683662;85;21135;-72
2021/08/31 05:11:41;;;;;;;;;;;;;;;13.08;90.37;97481.52;1683874;85;20172;-72
2021/08/31 05:14:07;;;;;;;;;;;;;;;13.09;90.34;97478.23;1683669;85;20184;-76
2021/08/31 05:16:33;;;;;;;;;;;;;;;13.10;90.34;97481.20;1683992;85;20176;-76
2021/08/31 05:18:58;;;;;;;;;;;;;;;13.12;90.35;97475.69;1683741;84;20165;-77
2021/08/31 05:21:24;;;;;;;;;;;;;;;13.15;90.31;97480.50;1683988;85;20921;-76
2021/08/31 05:23:50;;;;;;;;;;;;;;;13.18;90.28;97477.18;1683656;85;20212;-76
2021/08/31 05:26:15;;;;;;;;;;;;;;;13.24;90.23;97474.62;1683902;85;20856;-72
2021/08/31 05:28:41;;;;;;;;;;;;;;;13.28;90.25;97479.44;1683691;85;20173;-76
2021/08/31 05:31:07;;;;;;;;;;;;;;;13.35;90.27;97478.45;1683980;85;20149;-71
2021/08/31 05:33:33;;;;;;;;;;;;;;;13.43;90.30;97473.62;1683798;84;21075;-76
2021/08/31 05:35:59;;;;;;;;;;;;;;;13.51;90.30;97476.39;1683931;85;20156;-72
2021/08/31 05:38:24;;;;;;;;;;;;;;;13.60;90.11;97473.72;1682747;85;20239;-72
2021/08/31 05:40:50;;;;;;;;;;;;;;;13.59;90.01;97476.20;1679876;84;20176;-76
2021/08/31 05:43:16;;;;;;;;;;;;;;;13.64;90.20;97465.72;1679562;84;20272;-71
2021/08/31 05:45:41;;;;;;;;;;;;;;;13.69;90.14;97467.75;1679849;84;21779;-76
2021/08/31 05:48:07;;;;;;;;;;;;;;;13.69;90.10;97466.95;1679640;84;20228;-72
2021/08/31 05:50:33;;;;;;;;;;;;;;;13.68;89.99;97465.34;1679756;84;20183;-76
2021/08/31 05:52:59;;;;;;;;;;;;;;;13.63;89.90;97477.72;1679510;85;20530;-71
2021/08/31 05:55:25;;;;;;;;;;;;;;;13.63;89.86;97471.72;1679774;84;20689;-72
2021/08/31 05:57:51;;;;;;;;;;;;;;;13.62;89.84;97471.48;1679680;84;21144;-77
2021/08/31 06:00:17;;;;;;;;;;;;;;;13.69;89.72;97475.12;1679560;84;20709;-71
2021/08/31 06:02:44;;;;;;;;;;;;;;;13.69;89.72;97484.65;1679765;84;20247;-77
2021/08/31 06:05:10;;;;;;;;;;;;;;;13.69;89.81;97474.56;1679614;84;20134;-72
2021/08/31 06:07:39;;;;;;;;;;;;;;;13.68;90.10;97476.23;1669832;85;20403;-72
2021/08/31 06:10:05;;;;;;;;;;;;;;;13.72;90.28;97479.38;1679465;84;21182;-72
2021/08/31 06:12:30;;;;;;;;;;;;;;;13.70;90.07;97473.44;1679620;85;20143;-73
2021/08/31 06:14:56;;;;;;;;;;;;;;;13.71;90.07;97469.59;1679646;84;20272;-76
2021/08/31 06:17:22;;;;;;;;;;;;;;;13.72;90.02;97473.13;1679659;84;20386;-71
2021/08/31 06:19:49;;;;;;;;;;;;;;;13.70;89.90;97474.00;1679590;85;20167;-71
2021/08/31 06:22:15;;;;;;;;;;;;;;;13.73;90.09;97486.98;1679854;84;20923;-76
2021/08/31 06:24:40;;;;;;;;;;;;;;;13.69;90.36;97475.92;1679505;84;20704;-77
2021/08/31 06:27:06;;;;;;;;;;;;;;;13.70;90.02;97479.45;1679711;84;20212;-71
2021/08/31 06:29:32;;;;;;;;;;;;;;;13.76;90.15;97481.73;1679543;85;20177;-77
2021/08/31 06:31:58;;;;;;;;;;;;;;;13.76;90.24;97484.45;1679783;84;20153;-76
2021/08/31 06:34:24;;;;;;;;;;;;;;;13.75;90.30;97484.17;1679546;84;21074;-71
2021/08/31 06:36:49;;;;;;;;;;;;;;;13.76;89.84;97485.02;1679422;85;20263;-72
2021/08/31 06:39:15;;;;;;;;;;;;;;;13.70;90.04;97488.41;1679528;84;20418;-71
2021/08/31 06:41:41;;;;;;;;;;;;;;;13.72;90.25;97492.18;1679551;85;20178;-72
2021/08/31 06:44:07;;;;;;;;;;;;;;;13.73;90.05;97487.78;1679599;85;20208;-71
2021/08/31 06:46:32;;;;;;;;;;;;;;;13.80;90.00;97484.62;1679724;84;21973;-72
2021/08/31 06:48:58;;;;;;;;;;;;;;;13.88;90.02;97487.14;1679437;84;20201;-72
2021/08/31 06:51:24;;;;;;;;;;;;;;;13.95;89.92;97488.85;1679801;84;20189;-71
2021/08/31 06:53:50;;;;;;;;;;;;;;;14.04;89.88;97491.85;1679565;85;20141;-77
2021/08/31 06:56:16;;;;;;;;;;;;;;;14.04;89.86;97486.97;1679809;84;20141;-77
2021/08/31 06:58:41;;;;;;;;;;;;;;;14.07;89.76;97492.58;1679674;84;21138;-71
2021/08/31 07:01:07;;;;;;;;;;;;;;;14.09;89.84;97493.06;1679713;84;20713;-77
2021/08/31 07:03:33;;;;;;;;;;;;;;;14.12;89.95;97488.92;1679689;84;20224;-71
2021/08/31 07:05:58;;;;;;;;;;;;;;;14.21;89.93;97488.95;1679831;84;20181;-71
2021/08/31 07:08:24;;;;;;;;;;;;;;;14.33;89.57;97487.77;1679602;84;20184;-72
2021/08/31 07:10:50;;;;;;;;;;;;;;;14.53;89.18;97483.14;1679828;84;21180;-72
2021/08/31 07:13:16;;;;;;;;;;;;;;;14.56;87.87;97488.50;1679544;84;20252;-72
2021/08/31 07:15:42;;;;;;;;;;;;;;;14.57;88.50;97486.02;1679793;84;20208;-72
2021/08/31 07:18:07;;;;;;;;;;;;;;;14.64;88.10;97488.52;1679569;84;20156;-77
2021/08/31 07:20:33;;;;;;;;;;;;;;;14.65;87.68;97494.77;1679679;84;20272;-76
2021/08/31 07:22:59;;;;;;;;;;;;;;;14.68;87.86;97500.94;1679579;84;21087;-76
2021/08/31 07:25:25;;;;;;;;;;;;;;;14.67;88.23;97496.61;1679682;84;20200;-72
2021/08/31 07:27:51;;;;;;;;;;;;;;;14.73;87.82;97495.91;1679724;85;20264;-72
2021/08/31 07:30:16;;;;;;;;;;;;;;;14.81;87.74;97498.64;1679441;84;20610;-76
2021/08/31 07:32:42;;;;;;;;;;;;;;;14.87;86.74;97500.10;1679707;84;20161;-71
2021/08/31 07:35:10;;;;;;;;;;;;;;;14.90;86.97;97503.55;1679428;85;21201;-72
2021/08/31 07:37:36;;;;;;;;;;;;;;;14.87;86.99;97500.66;1679620;85;20259;-71
2021/08/31 07:40:02;;;;;;;;;;;;;;;14.84;86.70;97501.28;1679312;84;20728;-76
2021/08/31 07:42:28;;;;;;;;;;;;;;;14.90;87.07;97509.56;1679690;84;20138;-72
2021/08/31 07:44:54;;;;;;;;;;;;;;;14.94;86.76;97504.50;1679517;84;20173;-76
2021/08/31 07:47:19;;;;;;;;;;;;;;;14.99;85.82;97504.91;1679502;85;21152;-76
2021/08/31 07:49:45;;;;;;;;;;;;;;;15.01;86.48;97501.86;1679320;84;20216;-76
2021/08/31 07:52:11;;;;;;;;;;;;;;;15.06;86.68;97506.61;1679606;85;20164;-76
2021/08/31 07:54:37;;;;;;;;;;;;;;;15.07;86.41;97509.57;1679425;84;20161;-77
2021/08/31 07:57:03;;;;;;;;;;;;;;;14.98;86.40;97510.13;1679771;84;20216;-72
2021/08/31 07:59:29;;;;;;;;;;;;;;;14.97;86.45;97511.26;1679399;84;21202;-77
2021/08/31 08:01:55;;;;;;;;;;;;;;;14.79;86.55;97510.44;1679704;84;20135;-77
2021/08/31 08:04:20;;;;;;;;;;;;;;;14.75;86.84;97510.02;1679403;85;20295;-71
2021/08/31 08:06:46;;;;;;;;;;;;;;;14.77;86.79;97509.94;1679800;84;20407;-71
2021/08/31 08:09:12;;;;;;;;;;;;;;;14.76;87.20;97507.53;1679693;84;20200;-76
2021/08/31 08:11:38;;;;;;;;;;;;;;;14.82;87.21;97509.80;1679951;84;21355;-72
2021/08/31 08:14:04;;;;;;;;;;;;;;;14.88;87.64;97514.55;1679716;84;20283;-71
2021/08/31 08:16:30;;;;;;;;;;;;;;;14.95;87.17;97508.86;1679880;84;20162;-72
2021/08/31 08:18:55;;;;;;;;;;;;;;;15.02;87.26;97517.91;1679773;84;20152;-76
2021/08/31 08:21:21;;;;;;;;;;;;;;;15.01;87.73;97516.30;1679875;84;20158;-76
2021/08/31 08:23:47;;;;;;;;;;;;;;;15.17;87.36;97515.27;1679744;84;21078;-76
2021/08/31 08:26:13;;;;;;;;;;;;;;;15.20;87.21;97522.80;1679681;84;20263;-77
2021/08/31 08:28:39;;;;;;;;;;;;;;;15.34;87.36;97515.81;1679736;85;20233;-76
2021/08/31 08:31:05;;;;;;;;;;;;;;;15.48;86.74;97523.28;1679843;84;20144;-71
2021/08/31 08:33:32;;;;;;;;;;;;;;;15.58;86.92;97522.94;1669826;85;20161;-72
2021/08/31 08:36:02;;;;;;;;;;;;;;;15.55;86.04;97518.11;1679897;84;21125;-76
2021/08/31 08:38:28;;;;;;;;;;;;;;;15.38;86.62;97512.14;1679638;84;20155;-72
2021/08/31 08:40:53;;;;;;;;;;;;;;;15.36;86.22;97506.73;1679647;84;20219;-72
2021/08/31 08:43:19;;;;;;;;;;;;;;;15.26;86.43;97507.88;1669707;85;20189;-72
2021/08/31 08:45:47;;;;;;;;;;;;;;;15.26;86.45;97505.14;1679568;84;20149;-72
2021/08/31 08:48:21;;;;;;;;;;;;;;;15.24;86.60;97511.50;1679741;84;20994;-76
2021/08/31 08:50:47;;;;;;;;;;;;;;;15.18;86.71;97510.05;1679640;85;20134;-77
2021/08/31 08:53:13;;;;;;;;;;;;;;;15.23;86.91;97508.53;1679718;84;20210;-72
2021/08/31 08:55:38;;;;;;;;;;;;;;;15.19;86.78;97517.10;1679867;84;20177;-72
2021/08/31 08:58:04;;;;;;;;;;;;;;;15.16;87.16;97523.22;1679823;85;20212;-72
2021/08/31 09:00:58;;;;;;;;;;;;;;;15.12;86.98;97512.12;1679580;84;21658;-76
2021/08/31 09:03:24;;;;;;;;;;;;;;;15.10;86.97;97513.58;1679657;85;20126;-71
2021/08/31 09:06:08;;;;;;;;;;;;;;;14.97;87.07;97513.19;1679863;84;20184;-76
2021/08/31 09:08:34;;;;;;;;;;;;;;;14.83;87.27;97515.48;1674926;84;20198;-77
2021/08/31 09:11:18;;;;;;;;;;;;;;;14.76;87.88;97519.80;1679804;85;20146;-76
2021/08/31 09:13:44;;;;;;;;;;;;;;;14.75;87.59;97519.00;1629971;88;21058;-72
2021/08/31 09:16:29;;;;;;;;;;;;;;;14.69;87.97;97525.72;1657326;85;20169;-76
2021/08/31 09:18:56;;;;;;;;;;;;;;;14.56;88.11;97518.49;1674507;85;20176;-71
2021/08/31 09:21:27;;;;;;;;;;;;;;;14.46;88.54;97530.50;1679726;84;20452;-77
2021/08/31 09:23:54;;;;;;;;;;;;;;;14.43;88.70;97528.36;1679647;84;20142;-76
2021/08/31 09:26:40;;;;;;;;;;;;;;;14.44;89.14;97523.70;1669827;85;21012;-76
2021/08/31 09:29:18;;;;;;;;;;;;;;;14.52;88.68;97513.42;1679538;84;20154;-76
2021/08/31 09:31:53;;;;;;;;;;;;;;;14.65;88.70;97502.39;1679861;84;20178;-76
2021/08/31 09:34:43;;;;;;;;;;;;;;;14.80;88.53;97492.95;1679581;85;20463;-77
2021/08/31 09:37:30;;;;;;;;;;;;;;;14.98;88.62;97498.42;1679588;84;20139;-77
2021/08/31 09:40:08;;;;;;;;;;;;;;;15.07;87.96;97504.67;1680906;85;21869;-77
2021/08/31 09:42:34;;;;;;;;;;;;;;;15.06;88.24;97494.89;1683890;84;20413;-72
2021/08/31 09:45:03;;;;;;;;;;;;;;;15.08;87.93;97492.07;1683646;85;20146;-76
2021/08/31 09:47:34;;;;;;;;;;;;;;;15.14;87.92;97488.63;1682861;84;20421;-76
2021/08/31 09:50:02;;;;;;;;;;;;;;;15.09;87.79;97491.51;1683467;84;20134;-71
2021/08/31 09:52:27;;;;;;;;;;;;;;;15.09;88.06;97489.58;1683891;84;21670;-77
2021/08/31 09:54:53;;;;;;;;;;;;;;;15.17;87.96;97496.96;1683581;85;20192;-75
2021/08/31 09:57:30;;;;;;;;;;;;;;;15.20;87.90;97493.58;1683881;85;20228;-72
2021/08/31 09:59:58;;;;;;;;;;;;;;;15.17;87.57;97492.06;1683720;85;20126;-76
2021/08/31 10:02:24;;;;;;;;;;;;;;;15.24;87.95;97493.19;1683890;85;20430;-77
2021/08/31 10:04:52;;;;;;;;;;;;;;;15.49;87.39;97491.55;1683692;85;21110;-72
2021/08/31 10:07:17;;;;;;;;;;;;;;;15.72;87.35;97495.45;1683894;85;20443;-71
2021/08/31 10:09:43;;;;;;;;;;;;;;;15.80;86.93;97498.16;1683618;85;20759;-72
2021/08/31 10:12:09;;;;;;;;;;;;;;;15.74;86.67;97509.61;1683873;85;20450;-72
2021/08/31 10:14:42;;;;;;;;;;;;;;;15.70;86.70;97515.47;1683681;85;20204;-76
2021/08/31 10:17:08;;;;;;;;;;;;;;;15.69;87.12;97521.49;1683530;84;21136;-76
2021/08/31 10:19:34;;;;;;;;;;;;;;;15.78;87.38;97518.17;1683625;85;20168;-77
2021/08/31 10:22:00;;;;;;;;;;;;;;;15.94;87.24;97526.65;1683993;85;20633;-76
2021/08/31 10:24:26;;;;;;;;;;;;;;;16.00;86.81;97523.19;1683742;85;20157;-72
2021/08/31 10:26:51;;;;;;;;;;;;;;;16.03;87.04;97521.95;1683908;84;20669;-76
2021/08/31 10:29:21;;;;;;;;;;;;;;;16.06;87.15;97521.86;1683618;85;21072;-72
2021/08/31 10:31:48;;;;;;;;;;;;;;;16.08;86.58;97504.59;1683926;85;20126;-76
2021/08/31 10:34:39;;;;;;;;;;;;;;;16.15;86.78;97503.52;1683745;85;20129;-71
2021/08/31 10:37:09;;;;;;;;;;;;;;;16.21;85.79;97502.76;1683791;84;20169;-72
2021/08/31 10:39:45;;;;;;;;;;;;;;;16.25;85.91;97503.72;1683208;84;20159;-72
2021/08/31 10:42:12;;;;;;;;;;;;;;;16.45;85.67;97509.00;1679698;84;21820;-72
2021/08/31 10:44:41;;;;;;;;;;;;;;;16.53;85.79;97502.68;1679474;84;20159;-72
2021/08/31 10:47:17;;;;;;;;;;;;;;;16.57;85.08;97500.30;1679583;84;20205;-72
2021/08/31 10:49:58;;;;;;;;;;;;;;;16.61;85.29;97510.03;1679435;85;20130;-71
2021/08/31 10:52:34;;;;;;;;;;;;;;;16.48;84.24;97511.06;1679781;85;20189;-76
2021/08/31 10:55:00;;;;;;;;;;;;;;;16.36;85.02;97512.58;1679505;85;21183;-72
2021/08/31 10:57:39;;;;;;;;;;;;;;;16.29;85.21;97509.55;1679640;84;20244;-72
2021/08/31 11:00:17;;;;;;;;;;;;;;;16.22;85.36;97505.72;1679414;84;20135;-72
2021/08/31 11:02:50;;;;;;;;;;;;;;;16.10;85.40;97517.36;1679109;85;20127;-72
2021/08/31 11:05:27;;;;;;;;;;;;;;;16.04;85.87;97517.30;1679388;84;20139;-76
2021/08/31 11:08:00;;;;;;;;;;;;;;;15.99;85.84;97519.66;1679467;84;21117;-76
2021/08/31 11:10:34;;;;;;;;;;;;;;;15.92;85.99;97523.45;1679443;84;20139;-71
2021/08/31 11:13:20;;;;;;;;;;;;;;;15.96;86.44;97518.92;1679706;85;20158;-71
2021/08/31 11:15:49;;;;;;;;;;;;;;;15.97;86.84;97521.89;1679601;85;20094;-77
2021/08/31 11:18:19;;;;;;;;;;;;;;;16.10;86.63;97521.45;1679755;84;20238;-76
2021/08/31 11:20:47;;;;;;;;;;;;;;;16.50;86.03;97516.45;1679559;85;21104;-77
2021/08/31 11:23:19;;;;;;;;;;;;;;;16.77;85.81;97514.39;1679673;84;20146;-77
2021/08/31 11:25:55;;;;;;;;;;;;;;;16.98;85.21;97517.94;1679522;84;20163;-72
2021/08/31 11:28:27;;;;;;;;;;;;;;;16.88;84.97;97527.34;1679501;85;20126;-72
2021/08/31 11:31:06;;;;;;;;;;;;;;;16.64;85.47;97527.94;1678181;84;20205;-72
2021/08/31 11:33:37;;;;;;;;;;;;;;;16.49;85.22;97534.00;1679729;84;21079;-76
2021/08/31 11:36:07;;;;;;;;;;;;;;;16.45;85.39;97529.50;1679396;85;20178;-74
2021/08/31 11:38:43;;;;;;;;;;;;;;;16.34;85.27;97523.05;1679824;85;20134;-71
2021/08/31 11:41:24;;;;;;;;;;;;;;;16.27;85.26;97524.12;1679408;84;20144;-72
2021/08/31 11:43:53;;;;;;;;;;;;;;;16.23;85.34;97531.36;1679851;84;20131;-72
2021/08/31 11:46:21;;;;;;;;;;;;;;;16.12;85.84;97530.69;1679616;85;21276;-76
2021/08/31 11:48:47;;;;;;;;;;;;;;;16.07;86.33;97527.59;1679483;84;20418;-72
2021/08/31 11:51:15;;;;;;;;;;;;;;;16.11;85.81;97530.45;1679580;84;20752;-72
2021/08/31 11:53:41;;;;;;;;;;;;;;;15.95;86.59;97534.28;1669923;85;20414;-77
2021/08/31 11:56:07;;;;;;;;;;;;;;;15.95;87.00;97532.35;1679577;84;20193;-72
2021/08/31 11:58:43;;;;;;;;;;;;;;;15.99;86.51;97529.22;1679847;84;21977;-76
2021/08/31 12:01:08;;;;;;;;;;;;;;;15.94;86.52;97529.38;1679603;85;20126;-76
2021/08/31 12:03:34;;;;;;;;;;;;;;;15.90;87.19;97533.11;1679779;84;20208;-72
2021/08/31 12:06:02;;;;;;;;;;;;;;;15.92;86.87;97530.28;1679679;84;20260;-72
2021/08/31 12:08:30;;;;;;;;;;;;;;;15.93;87.20;97525.62;1679983;84;20142;-77
2021/08/31 12:10:55;;;;;;;;;;;;;;;15.97;87.08;97508.80;1679692;85;21840;-71
2021/08/31 12:13:22;;;;;;;;;;;;;;;15.99;87.24;97503.27;1679783;85;20725;-72
2021/08/31 12:15:49;;;;;;;;;;;;;;;16.02;87.29;97495.77;1679588;85;20163;-72
2021/08/31 12:18:17;;;;;;;;;;;;;;;16.00;87.40;97493.13;1679032;84;20483;-76
2021/08/31 12:20:43;;;;;;;;;;;;;;;16.02;87.16;97495.77;1679660;84;20155;-71
2021/08/31 12:23:10;;;;;;;;;;;;;;;16.09;87.21;97510.30;1669962;85;21755;-71
2021/08/31 12:25:44;;;;;;;;;;;;;;;16.03;87.45;97500.66;1679598;84;20118;-76
2021/08/31 12:28:10;;;;;;;;;;;;;;;16.01;87.36;97510.56;1679553;84;20171;-76
2021/08/31 12:30:38;;;;;;;;;;;;;;;16.01;87.67;97518.75;1679713;84;20578;-72
2021/08/31 12:33:04;;;;;;;;;;;;;;;15.99;87.34;97516.92;1679810;84;20186;-72
2021/08/31 12:35:41;;;;;;;;;;;;;;;15.86;87.75;97505.62;1679723;85;21993;-72
2021/08/31 12:38:13;;;;;;;;;;;;;;;15.70;88.13;97510.00;1679348;84;20166;-72
2021/08/31 12:41:02;;;;;;;;;;;;;;;15.68;88.02;97519.89;1679599;84;20142;-72
2021/08/31 12:43:28;;;;;;;;;;;;;;;15.63;88.28;97519.25;1679729;84;20823;-71
2021/08/31 12:45:57;;;;;;;;;;;;;;;15.59;88.44;97514.98;1679732;85;20186;-76
2021/08/31 12:48:39;;;;;;;;;;;;;;;15.60;88.50;97517.15;1679707;85;20925;-71
2021/08/31 12:51:05;;;;;;;;;;;;;;;15.59;88.54;97523.17;1679497;85;20159;-76